CYTR

Trenton Airport

Trenton, , Canada
METAR CYTR 232300Z 23017G24KT 12SM -SHRA BKN014 OVC046 03/02 A2951 RMK SF7SC1 SLP998
Observed Flight Rules
Jan-23 @ 23:00 UTC (36 minutes ago) Marginal Visual Flight Rules
Wind Visibility Clouds Conditions
230° at 17 knots
 Gusting to 24 knots
12 miles
  • Broken at 1,400' AGL
  • Overcast at 4,600' AGL
  • Light Rain
Temperatures Readings
Current 3°C / 37°F
Dewpoint 2°C / 36°F
Humidity 93%
Altimeter 29.51" Hg
Pressure 999.8 hPa
Elevation 86
METAR CYTR 232300Z 23017G24KT 12SM -SHRA BKN014 OVC046 03/02 A2951 RMK SF7SC1 SLP998
Observed Flight Rules
Jan-23 @ 23:00 UTC
(36 minutes ago)
MVFR
Wind Visibility
230° at 17 knots
 Gusting to 24 knots
12 miles
Clouds
  • Broken at 1,400' AGL
  • Overcast at 4,600' AGL
Conditions
  • Light Rain
Temperature Dewpoint
3°C / 37°F 2°C / 36°F
Humidity Altimeter Pressure
93% 29.51" Hg 999.8 hPa